sensor_id;sensor_type;location;lat;lon;timestamp;P1;durP1;ratioP1;P2;durP2;ratioP2
16826;SDS011;8530;49.540;8.576;2023-12-07T00:00:22;19.00;;;14.00;;
16826;SDS011;8530;49.540;8.576;2023-12-07T00:02:48;20.57;;;17.10;;
16826;SDS011;8530;49.540;8.576;2023-12-07T00:05:15;15.13;;;13.10;;
16826;SDS011;8530;49.540;8.576;2023-12-07T00:07:43;17.50;;;13.90;;
16826;SDS011;8530;49.540;8.576;2023-12-07T00:10:10;18.80;;;15.20;;
16826;SDS011;8530;49.540;8.576;2023-12-07T00:12:37;24.07;;;16.33;;
16826;SDS011;8530;49.540;8.576;2023-12-07T00:15:04;17.80;;;14.97;;
16826;SDS011;8530;49.540;8.576;2023-12-07T00:17:31;20.13;;;15.57;;
16826;SDS011;8530;49.540;8.576;2023-12-07T00:19:58;21.63;;;15.53;;
16826;SDS011;8530;49.540;8.576;2023-12-07T00:22:25;21.30;;;16.17;;
16826;SDS011;8530;49.540;8.576;2023-12-07T00:24:54;19.07;;;15.77;;
16826;SDS011;8530;49.540;8.576;2023-12-07T00:27:21;19.37;;;17.27;;
16826;SDS011;8530;49.540;8.576;2023-12-07T00:29:48;21.90;;;16.70;;
16826;SDS011;8530;49.540;8.576;2023-12-07T00:32:15;25.43;;;17.40;;
16826;SDS011;8530;49.540;8.576;2023-12-07T00:34:42;19.00;;;16.30;;
16826;SDS011;8530;49.540;8.576;2023-12-07T00:37:09;17.70;;;15.80;;
16826;SDS011;8530;49.540;8.576;2023-12-07T00:39:36;23.47;;;14.60;;
16826;SDS011;8530;49.540;8.576;2023-12-07T00:42:04;22.13;;;17.63;;
16826;SDS011;8530;49.540;8.576;2023-12-07T00:44:30;23.93;;;18.37;;
16826;SDS011;8530;49.540;8.576;2023-12-07T00:46:57;25.57;;;17.87;;
16826;SDS011;8530;49.540;8.576;2023-12-07T00:49:24;21.20;;;15.77;;
16826;SDS011;8530;49.540;8.576;2023-12-07T00:51:50;26.17;;;18.33;;
16826;SDS011;8530;49.540;8.576;2023-12-07T00:54:17;21.90;;;19.43;;
16826;SDS011;8530;49.540;8.576;2023-12-07T00:56:44;25.30;;;18.20;;
16826;SDS011;8530;49.540;8.576;2023-12-07T00:59:12;25.67;;;20.07;;
16826;SDS011;8530;49.540;8.576;2023-12-07T01:01:38;26.13;;;19.03;;
16826;SDS011;8530;49.540;8.576;2023-12-07T01:04:05;27.33;;;20.90;;
16826;SDS011;8530;49.540;8.576;2023-12-07T01:06:32;26.57;;;20.90;;
16826;SDS011;8530;49.540;8.576;2023-12-07T01:08:59;24.70;;;19.73;;
16826;SDS011;8530;49.540;8.576;2023-12-07T01:11:25;24.63;;;21.27;;
16826;SDS011;8530;49.540;8.576;2023-12-07T01:13:52;27.03;;;19.47;;
16826;SDS011;8530;49.540;8.576;2023-12-07T01:16:20;25.47;;;20.53;;
16826;SDS011;8530;49.540;8.576;2023-12-07T01:18:47;26.93;;;19.83;;
16826;SDS011;8530;49.540;8.576;2023-12-07T01:21:13;23.37;;;19.10;;
16826;SDS011;8530;49.540;8.576;2023-12-07T01:23:40;29.23;;;20.03;;
16826;SDS011;8530;49.540;8.576;2023-12-07T01:26:07;25.13;;;20.30;;
16826;SDS011;8530;49.540;8.576;2023-12-07T01:28:34;25.57;;;21.03;;
16826;SDS011;8530;49.540;8.576;2023-12-07T01:31:01;25.73;;;21.90;;
16826;SDS011;8530;49.540;8.576;2023-12-07T01:33:29;28.03;;;21.70;;
16826;SDS011;8530;49.540;8.576;2023-12-07T01:35:55;29.13;;;19.93;;
16826;SDS011;8530;49.540;8.576;2023-12-07T01:38:22;28.87;;;22.13;;
16826;SDS011;8530;49.540;8.576;2023-12-07T01:40:48;26.13;;;21.40;;
16826;SDS011;8530;49.540;8.576;2023-12-07T01:43:15;28.23;;;22.83;;
16826;SDS011;8530;49.540;8.576;2023-12-07T01:45:42;32.97;;;22.53;;
16826;SDS011;8530;49.540;8.576;2023-12-07T01:48:09;29.97;;;23.40;;
16826;SDS011;8530;49.540;8.576;2023-12-07T01:50:37;25.27;;;20.27;;
16826;SDS011;8530;49.540;8.576;2023-12-07T01:53:03;29.60;;;21.80;;
16826;SDS011;8530;49.540;8.576;2023-12-07T01:55:31;34.83;;;22.67;;
16826;SDS011;8530;49.540;8.576;2023-12-07T01:57:59;24.70;;;20.30;;
16826;SDS011;8530;49.540;8.576;2023-12-07T02:00:26;28.53;;;20.40;;
16826;SDS011;8530;49.540;8.576;2023-12-07T02:02:53;28.87;;;21.90;;
16826;SDS011;8530;49.540;8.576;2023-12-07T02:05:20;32.73;;;21.60;;
16826;SDS011;8530;49.540;8.576;2023-12-07T02:07:49;26.70;;;20.03;;
16826;SDS011;8530;49.540;8.576;2023-12-07T02:10:16;29.40;;;20.57;;
16826;SDS011;8530;49.540;8.576;2023-12-07T02:12:44;27.73;;;19.23;;
16826;SDS011;8530;49.540;8.576;2023-12-07T02:15:12;24.37;;;20.37;;
16826;SDS011;8530;49.540;8.576;2023-12-07T02:17:41;27.20;;;21.73;;
16826;SDS011;8530;49.540;8.576;2023-12-07T02:20:15;27.03;;;21.60;;
16826;SDS011;8530;49.540;8.576;2023-12-07T02:22:48;33.60;;;20.80;;
16826;SDS011;8530;49.540;8.576;2023-12-07T02:25:19;27.30;;;20.90;;
16826;SDS011;8530;49.540;8.576;2023-12-07T02:27:51;25.63;;;21.30;;
16826;SDS011;8530;49.540;8.576;2023-12-07T02:30:18;28.87;;;21.03;;
16826;SDS011;8530;49.540;8.576;2023-12-07T02:32:45;31.30;;;23.80;;
16826;SDS011;8530;49.540;8.576;2023-12-07T02:35:12;28.57;;;22.27;;
16826;SDS011;8530;49.540;8.576;2023-12-07T02:37:40;25.70;;;17.93;;
16826;SDS011;8530;49.540;8.576;2023-12-07T02:40:09;29.07;;;21.57;;
16826;SDS011;8530;49.540;8.576;2023-12-07T02:42:40;26.00;;;21.40;;
16826;SDS011;8530;49.540;8.576;2023-12-07T02:45:09;31.63;;;22.70;;
16826;SDS011;8530;49.540;8.576;2023-12-07T02:47:37;29.43;;;22.10;;
16826;SDS011;8530;49.540;8.576;2023-12-07T02:50:04;24.73;;;20.73;;
16826;SDS011;8530;49.540;8.576;2023-12-07T02:52:33;31.50;;;21.70;;
16826;SDS011;8530;49.540;8.576;2023-12-07T02:54:59;27.33;;;21.63;;
16826;SDS011;8530;49.540;8.576;2023-12-07T02:57:27;25.20;;;21.20;;
16826;SDS011;8530;49.540;8.576;2023-12-07T02:59:54;31.30;;;21.40;;
16826;SDS011;8530;49.540;8.576;2023-12-07T03:02:22;28.17;;;20.37;;
16826;SDS011;8530;49.540;8.576;2023-12-07T03:04:49;30.47;;;21.50;;
16826;SDS011;8530;49.540;8.576;2023-12-07T03:07:15;25.20;;;21.23;;
16826;SDS011;8530;49.540;8.576;2023-12-07T03:09:42;27.60;;;23.23;;
16826;SDS011;8530;49.540;8.576;2023-12-07T03:12:09;33.50;;;22.57;;
16826;SDS011;8530;49.540;8.576;2023-12-07T03:14:35;30.30;;;23.30;;
16826;SDS011;8530;49.540;8.576;2023-12-07T03:17:02;30.90;;;22.87;;
16826;SDS011;8530;49.540;8.576;2023-12-07T03:19:30;31.93;;;21.40;;
16826;SDS011;8530;49.540;8.576;2023-12-07T03:21:57;29.70;;;22.97;;
16826;SDS011;8530;49.540;8.576;2023-12-07T03:24:24;30.97;;;21.70;;
16826;SDS011;8530;49.540;8.576;2023-12-07T03:26:50;28.03;;;20.87;;
16826;SDS011;8530;49.540;8.576;2023-12-07T03:29:17;29.50;;;21.87;;
16826;SDS011;8530;49.540;8.576;2023-12-07T03:31:44;35.37;;;25.80;;
16826;SDS011;8530;49.540;8.576;2023-12-07T03:34:10;39.40;;;25.60;;
16826;SDS011;8530;49.540;8.576;2023-12-07T03:36:41;32.80;;;23.43;;
16826;SDS011;8530;49.540;8.576;2023-12-07T03:39:08;37.63;;;25.27;;
16826;SDS011;8530;49.540;8.576;2023-12-07T03:41:35;32.83;;;22.00;;
16826;SDS011;8530;49.540;8.576;2023-12-07T03:44:02;31.10;;;21.90;;
16826;SDS011;8530;49.540;8.576;2023-12-07T03:46:29;35.53;;;24.90;;
16826;SDS011;8530;49.540;8.576;2023-12-07T03:48:56;31.63;;;21.63;;
16826;SDS011;8530;49.540;8.576;2023-12-07T03:51:22;42.80;;;25.87;;
16826;SDS011;8530;49.540;8.576;2023-12-07T03:53:50;30.73;;;22.10;;
16826;SDS011;8530;49.540;8.576;2023-12-07T03:56:22;44.23;;;26.83;;
16826;SDS011;8530;49.540;8.576;2023-12-07T03:58:49;30.33;;;22.87;;
16826;SDS011;8530;49.540;8.576;2023-12-07T04:01:16;32.37;;;24.13;;
16826;SDS011;8530;49.540;8.576;2023-12-07T04:03:42;39.57;;;26.37;;
16826;SDS011;8530;49.540;8.576;2023-12-07T04:06:09;40.40;;;26.73;;
16826;SDS011;8530;49.540;8.576;2023-12-07T04:08:36;32.77;;;25.40;;
16826;SDS011;8530;49.540;8.576;2023-12-07T04:11:03;45.17;;;26.50;;
16826;SDS011;8530;49.540;8.576;2023-12-07T04:13:30;39.67;;;25.97;;
16826;SDS011;8530;49.540;8.576;2023-12-07T04:15:56;35.07;;;24.23;;
16826;SDS011;8530;49.540;8.576;2023-12-07T04:18:23;35.13;;;24.20;;
16826;SDS011;8530;49.540;8.576;2023-12-07T04:20:50;34.87;;;25.73;;
16826;SDS011;8530;49.540;8.576;2023-12-07T04:23:16;33.47;;;22.90;;
16826;SDS011;8530;49.540;8.576;2023-12-07T04:25:43;36.33;;;24.20;;
16826;SDS011;8530;49.540;8.576;2023-12-07T04:28:11;36.33;;;24.47;;
16826;SDS011;8530;49.540;8.576;2023-12-07T04:30:38;42.33;;;24.10;;
16826;SDS011;8530;49.540;8.576;2023-12-07T04:33:05;34.87;;;23.47;;
16826;SDS011;8530;49.540;8.576;2023-12-07T04:35:31;34.50;;;23.93;;
16826;SDS011;8530;49.540;8.576;2023-12-07T04:37:58;30.70;;;23.30;;
16826;SDS011;8530;49.540;8.576;2023-12-07T04:40:25;32.90;;;24.43;;
16826;SDS011;8530;49.540;8.576;2023-12-07T04:42:51;38.80;;;24.60;;
16826;SDS011;8530;49.540;8.576;2023-12-07T04:45:20;33.43;;;25.60;;
16826;SDS011;8530;49.540;8.576;2023-12-07T04:47:47;33.17;;;24.90;;
16826;SDS011;8530;49.540;8.576;2023-12-07T04:50:13;33.90;;;22.90;;
16826;SDS011;8530;49.540;8.576;2023-12-07T04:52:40;37.20;;;26.33;;
16826;SDS011;8530;49.540;8.576;2023-12-07T04:55:08;30.43;;;22.43;;
16826;SDS011;8530;49.540;8.576;2023-12-07T04:57:34;37.13;;;27.27;;
16826;SDS011;8530;49.540;8.576;2023-12-07T05:00:01;34.20;;;24.83;;
16826;SDS011;8530;49.540;8.576;2023-12-07T05:02:32;41.87;;;29.77;;
16826;SDS011;8530;49.540;8.576;2023-12-07T05:04:59;36.80;;;28.00;;
16826;SDS011;8530;49.540;8.576;2023-12-07T05:07:25;45.80;;;27.87;;
16826;SDS011;8530;49.540;8.576;2023-12-07T05:09:52;44.83;;;31.50;;
16826;SDS011;8530;49.540;8.576;2023-12-07T05:12:19;41.87;;;29.10;;
16826;SDS011;8530;49.540;8.576;2023-12-07T05:14:45;47.03;;;32.10;;
16826;SDS011;8530;49.540;8.576;2023-12-07T05:17:12;43.00;;;30.30;;
16826;SDS011;8530;49.540;8.576;2023-12-07T05:19:40;51.53;;;30.80;;
16826;SDS011;8530;49.540;8.576;2023-12-07T05:22:07;48.40;;;30.50;;
16826;SDS011;8530;49.540;8.576;2023-12-07T05:24:34;48.90;;;31.50;;
16826;SDS011;8530;49.540;8.576;2023-12-07T05:27:01;57.17;;;32.73;;
16826;SDS011;8530;49.540;8.576;2023-12-07T05:29:28;46.13;;;30.07;;
16826;SDS011;8530;49.540;8.576;2023-12-07T05:31:55;51.60;;;31.30;;
16826;SDS011;8530;49.540;8.576;2023-12-07T05:34:22;43.73;;;30.17;;
16826;SDS011;8530;49.540;8.576;2023-12-07T05:36:50;41.73;;;28.57;;
16826;SDS011;8530;49.540;8.576;2023-12-07T05:39:16;41.63;;;29.30;;
16826;SDS011;8530;49.540;8.576;2023-12-07T05:41:43;41.03;;;28.57;;
16826;SDS011;8530;49.540;8.576;2023-12-07T05:44:11;40.80;;;29.20;;
16826;SDS011;8530;49.540;8.576;2023-12-07T05:46:39;48.40;;;29.47;;
16826;SDS011;8530;49.540;8.576;2023-12-07T05:49:09;42.53;;;29.87;;
16826;SDS011;8530;49.540;8.576;2023-12-07T05:51:35;44.60;;;30.07;;
16826;SDS011;8530;49.540;8.576;2023-12-07T05:54:03;49.53;;;32.30;;
16826;SDS011;8530;49.540;8.576;2023-12-07T05:56:30;49.77;;;30.87;;
16826;SDS011;8530;49.540;8.576;2023-12-07T05:58:57;38.20;;;28.17;;
16826;SDS011;8530;49.540;8.576;2023-12-07T06:01:24;45.57;;;30.13;;
16826;SDS011;8530;49.540;8.576;2023-12-07T06:03:50;46.30;;;31.53;;
16826;SDS011;8530;49.540;8.576;2023-12-07T06:06:17;41.00;;;27.57;;
16826;SDS011;8530;49.540;8.576;2023-12-07T06:08:46;38.53;;;25.43;;
16826;SDS011;8530;49.540;8.576;2023-12-07T06:11:14;40.40;;;26.43;;
16826;SDS011;8530;49.540;8.576;2023-12-07T06:13:41;49.43;;;29.50;;
16826;SDS011;8530;49.540;8.576;2023-12-07T06:16:11;54.57;;;30.67;;
16826;SDS011;8530;49.540;8.576;2023-12-07T06:18:38;40.23;;;27.60;;
16826;SDS011;8530;49.540;8.576;2023-12-07T06:21:05;50.57;;;33.00;;
16826;SDS011;8530;49.540;8.576;2023-12-07T06:23:31;56.17;;;34.17;;
16826;SDS011;8530;49.540;8.576;2023-12-07T06:25:58;62.23;;;41.70;;
16826;SDS011;8530;49.540;8.576;2023-12-07T06:28:28;73.37;;;46.40;;
16826;SDS011;8530;49.540;8.576;2023-12-07T06:30:57;76.73;;;46.77;;
16826;SDS011;8530;49.540;8.576;2023-12-07T06:33:23;63.67;;;42.13;;
16826;SDS011;8530;49.540;8.576;2023-12-07T06:35:50;64.50;;;42.43;;
16826;SDS011;8530;49.540;8.576;2023-12-07T06:38:17;52.30;;;33.40;;
16826;SDS011;8530;49.540;8.576;2023-12-07T06:40:45;52.30;;;30.00;;
16826;SDS011;8530;49.540;8.576;2023-12-07T06:43:12;49.20;;;30.90;;
16826;SDS011;8530;49.540;8.576;2023-12-07T06:45:40;46.03;;;29.10;;
16826;SDS011;8530;49.540;8.576;2023-12-07T06:48:07;42.90;;;27.73;;
16826;SDS011;8530;49.540;8.576;2023-12-07T06:50:33;45.50;;;28.43;;
16826;SDS011;8530;49.540;8.576;2023-12-07T06:53:00;51.27;;;29.30;;
16826;SDS011;8530;49.540;8.576;2023-12-07T06:55:27;43.43;;;25.30;;
16826;SDS011;8530;49.540;8.576;2023-12-07T06:57:53;36.90;;;26.00;;
16826;SDS011;8530;49.540;8.576;2023-12-07T07:00:20;39.47;;;25.23;;
16826;SDS011;8530;49.540;8.576;2023-12-07T07:02:50;37.60;;;27.30;;
16826;SDS011;8530;49.540;8.576;2023-12-07T07:05:17;41.20;;;28.10;;
16826;SDS011;8530;49.540;8.576;2023-12-07T07:07:44;41.80;;;29.67;;
16826;SDS011;8530;49.540;8.576;2023-12-07T07:10:11;48.97;;;29.20;;
16826;SDS011;8530;49.540;8.576;2023-12-07T07:12:38;47.90;;;32.17;;
16826;SDS011;8530;49.540;8.576;2023-12-07T07:15:06;47.40;;;28.77;;
16826;SDS011;8530;49.540;8.576;2023-12-07T07:17:33;45.73;;;27.30;;
16826;SDS011;8530;49.540;8.576;2023-12-07T07:20:01;37.70;;;26.53;;
16826;SDS011;8530;49.540;8.576;2023-12-07T07:22:28;45.00;;;29.37;;
16826;SDS011;8530;49.540;8.576;2023-12-07T07:24:55;36.80;;;26.67;;
16826;SDS011;8530;49.540;8.576;2023-12-07T07:27:22;38.27;;;27.07;;
16826;SDS011;8530;49.540;8.576;2023-12-07T07:29:48;33.10;;;25.13;;
16826;SDS011;8530;49.540;8.576;2023-12-07T07:32:15;31.83;;;24.20;;
16826;SDS011;8530;49.540;8.576;2023-12-07T07:34:41;38.63;;;26.03;;
16826;SDS011;8530;49.540;8.576;2023-12-07T07:37:09;33.60;;;24.37;;
16826;SDS011;8530;49.540;8.576;2023-12-07T07:39:36;36.63;;;25.67;;
16826;SDS011;8530;49.540;8.576;2023-12-07T07:42:03;38.63;;;25.40;;
16826;SDS011;8530;49.540;8.576;2023-12-07T07:44:30;41.13;;;28.17;;
16826;SDS011;8530;49.540;8.576;2023-12-07T07:46:57;32.50;;;23.87;;
16826;SDS011;8530;49.540;8.576;2023-12-07T07:49:24;40.60;;;28.33;;
16826;SDS011;8530;49.540;8.576;2023-12-07T07:51:50;31.97;;;25.27;;
16826;SDS011;8530;49.540;8.576;2023-12-07T07:54:18;40.70;;;28.27;;
16826;SDS011;8530;49.540;8.576;2023-12-07T07:56:45;39.00;;;28.93;;
16826;SDS011;8530;49.540;8.576;2023-12-07T07:59:12;41.77;;;31.63;;
16826;SDS011;8530;49.540;8.576;2023-12-07T08:01:39;35.27;;;27.00;;
16826;SDS011;8530;49.540;8.576;2023-12-07T08:04:05;41.63;;;29.33;;
16826;SDS011;8530;49.540;8.576;2023-12-07T08:06:32;34.63;;;26.67;;
16826;SDS011;8530;49.540;8.576;2023-12-07T08:08:59;33.20;;;23.83;;
16826;SDS011;8530;49.540;8.576;2023-12-07T08:11:27;38.90;;;27.37;;
16826;SDS011;8530;49.540;8.576;2023-12-07T08:13:54;33.97;;;25.03;;
16826;SDS011;8530;49.540;8.576;2023-12-07T08:16:19;39.23;;;26.60;;
16826;SDS011;8530;49.540;8.576;2023-12-07T08:18:46;41.93;;;28.20;;
16826;SDS011;8530;49.540;8.576;2023-12-07T08:21:18;36.97;;;26.17;;
16826;SDS011;8530;49.540;8.576;2023-12-07T08:23:46;34.60;;;25.57;;
16826;SDS011;8530;49.540;8.576;2023-12-07T08:26:12;39.60;;;27.50;;
16826;SDS011;8530;49.540;8.576;2023-12-07T08:28:41;32.77;;;25.23;;
16826;SDS011;8530;49.540;8.576;2023-12-07T08:31:09;37.43;;;26.80;;
16826;SDS011;8530;49.540;8.576;2023-12-07T08:33:36;37.87;;;25.87;;
16826;SDS011;8530;49.540;8.576;2023-12-07T08:36:04;31.50;;;25.53;;
16826;SDS011;8530;49.540;8.576;2023-12-07T08:38:32;32.60;;;24.63;;
16826;SDS011;8530;49.540;8.576;2023-12-07T08:40:58;36.13;;;25.53;;
16826;SDS011;8530;49.540;8.576;2023-12-07T08:43:25;33.17;;;25.00;;
16826;SDS011;8530;49.540;8.576;2023-12-07T08:45:54;39.20;;;27.40;;
16826;SDS011;8530;49.540;8.576;2023-12-07T08:48:21;35.70;;;28.13;;
16826;SDS011;8530;49.540;8.576;2023-12-07T08:50:48;49.50;;;30.67;;
16826;SDS011;8530;49.540;8.576;2023-12-07T08:53:16;56.67;;;29.40;;
16826;SDS011;8530;49.540;8.576;2023-12-07T08:55:43;60.60;;;29.33;;
16826;SDS011;8530;49.540;8.576;2023-12-07T08:58:09;57.17;;;30.63;;
16826;SDS011;8530;49.540;8.576;2023-12-07T09:00:37;50.33;;;29.37;;
16826;SDS011;8530;49.540;8.576;2023-12-07T09:03:05;51.47;;;31.43;;
16826;SDS011;8530;49.540;8.576;2023-12-07T09:05:31;54.33;;;31.53;;
16826;SDS011;8530;49.540;8.576;2023-12-07T09:07:58;46.83;;;32.13;;
16826;SDS011;8530;49.540;8.576;2023-12-07T09:10:25;59.67;;;33.47;;
16826;SDS011;8530;49.540;8.576;2023-12-07T09:12:51;52.57;;;34.10;;
16826;SDS011;8530;49.540;8.576;2023-12-07T09:15:18;47.17;;;30.77;;
16826;SDS011;8530;49.540;8.576;2023-12-07T09:17:46;45.63;;;30.00;;
16826;SDS011;8530;49.540;8.576;2023-12-07T09:20:15;54.63;;;28.50;;
16826;SDS011;8530;49.540;8.576;2023-12-07T09:22:42;44.33;;;26.00;;
16826;SDS011;8530;49.540;8.576;2023-12-07T09:25:10;39.23;;;26.70;;
16826;SDS011;8530;49.540;8.576;2023-12-07T09:27:37;44.73;;;25.87;;
16826;SDS011;8530;49.540;8.576;2023-12-07T09:30:04;33.50;;;23.40;;
16826;SDS011;8530;49.540;8.576;2023-12-07T09:32:32;37.73;;;23.23;;
16826;SDS011;8530;49.540;8.576;2023-12-07T09:35:03;36.27;;;21.60;;
16826;SDS011;8530;49.540;8.576;2023-12-07T09:37:31;37.53;;;23.40;;
16826;SDS011;8530;49.540;8.576;2023-12-07T09:39:58;38.13;;;23.10;;
16826;SDS011;8530;49.540;8.576;2023-12-07T09:42:25;37.47;;;24.43;;
16826;SDS011;8530;49.540;8.576;2023-12-07T09:44:52;33.27;;;21.97;;
16826;SDS011;8530;49.540;8.576;2023-12-07T09:47:20;31.83;;;22.30;;
16826;SDS011;8530;49.540;8.576;2023-12-07T09:49:47;33.20;;;23.07;;
16826;SDS011;8530;49.540;8.576;2023-12-07T09:52:13;32.90;;;23.17;;
16826;SDS011;8530;49.540;8.576;2023-12-07T09:54:43;30.43;;;21.93;;
16826;SDS011;8530;49.540;8.576;2023-12-07T09:57:11;34.60;;;22.77;;
16826;SDS011;8530;49.540;8.576;2023-12-07T09:59:39;40.40;;;22.70;;
16826;SDS011;8530;49.540;8.576;2023-12-07T10:02:06;34.03;;;23.80;;
16826;SDS011;8530;49.540;8.576;2023-12-07T10:04:33;28.60;;;21.10;;
16826;SDS011;8530;49.540;8.576;2023-12-07T10:07:01;32.60;;;22.30;;
16826;SDS011;8530;49.540;8.576;2023-12-07T10:09:28;28.13;;;21.30;;
16826;SDS011;8530;49.540;8.576;2023-12-07T10:12:03;37.23;;;23.07;;
16826;SDS011;8530;49.540;8.576;2023-12-07T10:14:30;34.77;;;22.50;;
16826;SDS011;8530;49.540;8.576;2023-12-07T10:16:57;34.00;;;22.83;;
16826;SDS011;8530;49.540;8.576;2023-12-07T10:19:24;34.50;;;20.80;;
16826;SDS011;8530;49.540;8.576;2023-12-07T10:21:52;32.20;;;21.97;;
16826;SDS011;8530;49.540;8.576;2023-12-07T10:24:20;38.83;;;22.80;;
16826;SDS011;8530;49.540;8.576;2023-12-07T10:26:48;31.80;;;22.83;;
16826;SDS011;8530;49.540;8.576;2023-12-07T10:29:18;29.33;;;21.03;;
16826;SDS011;8530;49.540;8.576;2023-12-07T10:31:48;29.90;;;21.47;;
16826;SDS011;8530;49.540;8.576;2023-12-07T10:34:17;29.27;;;20.37;;
16826;SDS011;8530;49.540;8.576;2023-12-07T10:36:44;31.93;;;19.70;;
16826;SDS011;8530;49.540;8.576;2023-12-07T10:39:12;26.57;;;18.33;;
16826;SDS011;8530;49.540;8.576;2023-12-07T10:41:38;24.07;;;18.67;;
16826;SDS011;8530;49.540;8.576;2023-12-07T10:44:09;25.67;;;18.27;;
16826;SDS011;8530;49.540;8.576;2023-12-07T10:46:40;28.07;;;20.40;;
16826;SDS011;8530;49.540;8.576;2023-12-07T10:49:11;31.80;;;19.00;;
16826;SDS011;8530;49.540;8.576;2023-12-07T10:51:44;23.40;;;18.57;;
16826;SDS011;8530;49.540;8.576;2023-12-07T10:54:15;30.83;;;19.47;;
16826;SDS011;8530;49.540;8.576;2023-12-07T10:56:45;27.70;;;22.40;;
16826;SDS011;8530;49.540;8.576;2023-12-07T10:59:13;29.87;;;21.97;;
16826;SDS011;8530;49.540;8.576;2023-12-07T11:01:41;30.10;;;22.40;;
16826;SDS011;8530;49.540;8.576;2023-12-07T11:04:10;31.83;;;22.40;;
16826;SDS011;8530;49.540;8.576;2023-12-07T11:06:38;34.17;;;22.30;;
16826;SDS011;8530;49.540;8.576;2023-12-07T11:09:06;34.33;;;23.53;;
16826;SDS011;8530;49.540;8.576;2023-12-07T11:11:36;32.97;;;23.40;;
16826;SDS011;8530;49.540;8.576;2023-12-07T11:14:09;33.10;;;23.90;;
16826;SDS011;8530;49.540;8.576;2023-12-07T11:16:38;33.23;;;22.93;;
16826;SDS011;8530;49.540;8.576;2023-12-07T11:19:23;31.10;;;23.40;;
16826;SDS011;8530;49.540;8.576;2023-12-07T11:22:10;31.67;;;23.67;;
16826;SDS011;8530;49.540;8.576;2023-12-07T11:24:37;29.40;;;20.83;;
16826;SDS011;8530;49.540;8.576;2023-12-07T11:27:17;29.03;;;20.80;;
16826;SDS011;8530;49.540;8.576;2023-12-07T11:29:45;36.77;;;26.03;;
16826;SDS011;8530;49.540;8.576;2023-12-07T11:32:13;41.17;;;23.90;;
16826;SDS011;8530;49.540;8.576;2023-12-07T11:34:41;32.90;;;23.50;;
16826;SDS011;8530;49.540;8.576;2023-12-07T11:37:09;33.60;;;23.70;;
16826;SDS011;8530;49.540;8.576;2023-12-07T11:39:39;29.83;;;22.37;;
16826;SDS011;8530;49.540;8.576;2023-12-07T11:42:07;31.80;;;22.57;;
16826;SDS011;8530;49.540;8.576;2023-12-07T11:44:37;33.80;;;24.20;;
16826;SDS011;8530;49.540;8.576;2023-12-07T11:47:04;34.90;;;23.07;;
16826;SDS011;8530;49.540;8.576;2023-12-07T11:49:32;27.67;;;21.93;;
16826;SDS011;8530;49.540;8.576;2023-12-07T11:51:59;29.63;;;21.53;;
16826;SDS011;8530;49.540;8.576;2023-12-07T11:54:26;28.73;;;20.27;;
16826;SDS011;8530;49.540;8.576;2023-12-07T11:56:53;30.00;;;21.47;;
16826;SDS011;8530;49.540;8.576;2023-12-07T11:59:20;30.63;;;27.07;;
16826;SDS011;8530;49.540;8.576;2023-12-07T12:01:47;26.17;;;20.60;;
16826;SDS011;8530;49.540;8.576;2023-12-07T12:04:14;32.80;;;21.40;;
16826;SDS011;8530;49.540;8.576;2023-12-07T12:06:44;26.40;;;20.47;;
16826;SDS011;8530;49.540;8.576;2023-12-07T12:09:11;30.83;;;21.40;;
16826;SDS011;8530;49.540;8.576;2023-12-07T12:11:43;26.27;;;20.47;;
16826;SDS011;8530;49.540;8.576;2023-12-07T12:14:11;25.60;;;18.60;;
16826;SDS011;8530;49.540;8.576;2023-12-07T12:16:38;28.03;;;19.47;;
16826;SDS011;8530;49.540;8.576;2023-12-07T12:19:05;31.37;;;20.77;;
16826;SDS011;8530;49.540;8.576;2023-12-07T12:21:33;36.40;;;23.27;;
16826;SDS011;8530;49.540;8.576;2023-12-07T12:24:01;33.43;;;21.53;;
16826;SDS011;8530;49.540;8.576;2023-12-07T12:26:28;30.40;;;21.70;;
16826;SDS011;8530;49.540;8.576;2023-12-07T12:28:56;36.70;;;22.60;;
16826;SDS011;8530;49.540;8.576;2023-12-07T12:31:22;30.70;;;21.27;;
16826;SDS011;8530;49.540;8.576;2023-12-07T12:33:49;29.07;;;20.20;;
16826;SDS011;8530;49.540;8.576;2023-12-07T12:36:16;29.23;;;21.33;;
16826;SDS011;8530;49.540;8.576;2023-12-07T12:38:48;33.60;;;22.90;;
16826;SDS011;8530;49.540;8.576;2023-12-07T12:41:18;31.47;;;23.83;;
16826;SDS011;8530;49.540;8.576;2023-12-07T12:43:45;29.30;;;21.10;;
16826;SDS011;8530;49.540;8.576;2023-12-07T12:46:13;30.37;;;22.50;;
16826;SDS011;8530;49.540;8.576;2023-12-07T12:48:53;31.50;;;23.93;;
16826;SDS011;8530;49.540;8.576;2023-12-07T12:51:22;32.80;;;23.70;;
16826;SDS011;8530;49.540;8.576;2023-12-07T12:53:51;31.03;;;22.83;;
16826;SDS011;8530;49.540;8.576;2023-12-07T12:56:20;34.33;;;24.07;;
16826;SDS011;8530;49.540;8.576;2023-12-07T12:58:47;32.57;;;23.67;;
16826;SDS011;8530;49.540;8.576;2023-12-07T13:01:14;34.53;;;23.47;;
16826;SDS011;8530;49.540;8.576;2023-12-07T13:03:42;35.73;;;26.47;;
16826;SDS011;8530;49.540;8.576;2023-12-07T13:06:10;36.63;;;23.23;;
16826;SDS011;8530;49.540;8.576;2023-12-07T13:08:37;39.10;;;24.90;;
16826;SDS011;8530;49.540;8.576;2023-12-07T13:11:04;30.30;;;22.70;;
16826;SDS011;8530;49.540;8.576;2023-12-07T13:13:32;32.53;;;24.07;;
16826;SDS011;8530;49.540;8.576;2023-12-07T13:15:59;35.90;;;24.17;;
16826;SDS011;8530;49.540;8.576;2023-12-07T13:18:26;33.23;;;24.40;;
16826;SDS011;8530;49.540;8.576;2023-12-07T13:20:52;31.97;;;25.03;;
16826;SDS011;8530;49.540;8.576;2023-12-07T13:23:19;40.17;;;25.93;;
16826;SDS011;8530;49.540;8.576;2023-12-07T13:25:46;34.00;;;25.17;;
16826;SDS011;8530;49.540;8.576;2023-12-07T13:28:13;38.67;;;26.37;;
16826;SDS011;8530;49.540;8.576;2023-12-07T13:30:41;34.83;;;25.93;;
16826;SDS011;8530;49.540;8.576;2023-12-07T13:33:08;40.13;;;27.83;;
16826;SDS011;8530;49.540;8.576;2023-12-07T13:35:35;35.70;;;25.03;;
16826;SDS011;8530;49.540;8.576;2023-12-07T13:38:02;37.80;;;25.97;;
16826;SDS011;8530;49.540;8.576;2023-12-07T13:40:28;38.87;;;27.00;;
16826;SDS011;8530;49.540;8.576;2023-12-07T13:42:55;36.90;;;26.80;;
16826;SDS011;8530;49.540;8.576;2023-12-07T13:45:21;32.60;;;24.87;;
16826;SDS011;8530;49.540;8.576;2023-12-07T13:47:49;32.40;;;23.67;;
16826;SDS011;8530;49.540;8.576;2023-12-07T13:50:17;35.20;;;24.67;;
16826;SDS011;8530;49.540;8.576;2023-12-07T13:52:44;36.07;;;25.40;;
16826;SDS011;8530;49.540;8.576;2023-12-07T13:55:11;35.50;;;25.27;;
16826;SDS011;8530;49.540;8.576;2023-12-07T13:57:38;34.10;;;25.43;;
16826;SDS011;8530;49.540;8.576;2023-12-07T14:00:05;37.03;;;25.03;;
16826;SDS011;8530;49.540;8.576;2023-12-07T14:02:37;33.07;;;23.60;;
16826;SDS011;8530;49.540;8.576;2023-12-07T14:05:06;33.37;;;23.60;;
16826;SDS011;8530;49.540;8.576;2023-12-07T14:07:33;32.80;;;23.50;;
16826;SDS011;8530;49.540;8.576;2023-12-07T14:09:59;36.33;;;23.50;;
16826;SDS011;8530;49.540;8.576;2023-12-07T14:12:27;39.90;;;26.03;;
16826;SDS011;8530;49.540;8.576;2023-12-07T14:14:54;39.83;;;26.20;;
16826;SDS011;8530;49.540;8.576;2023-12-07T14:17:21;35.10;;;25.83;;
16826;SDS011;8530;49.540;8.576;2023-12-07T14:19:48;33.67;;;25.23;;
16826;SDS011;8530;49.540;8.576;2023-12-07T14:22:16;37.97;;;25.87;;
16826;SDS011;8530;49.540;8.576;2023-12-07T14:24:42;37.93;;;27.33;;
16826;SDS011;8530;49.540;8.576;2023-12-07T14:27:09;40.00;;;25.80;;
16826;SDS011;8530;49.540;8.576;2023-12-07T14:29:37;43.33;;;27.60;;
16826;SDS011;8530;49.540;8.576;2023-12-07T14:32:04;37.17;;;26.23;;
16826;SDS011;8530;49.540;8.576;2023-12-07T14:34:31;37.37;;;25.97;;